Time;durP1;ratioP1;P1;durP2;ratioP2;P2;SDS_P1;SDS_P2;PMS_P1;PMS_P2;Temp;Humidity;BMP_temperature;BMP_pressure;BME280_temperature;BME280_humidity;BME280_pressure;Samples;Min_cycle;Max_cycle;Signal;HPM_P1;HPM_P2
2022/10/24 00:01:30;;;;;;;15.63;4.72;;;;;;;;;;6387317;22;20172;-90
2022/10/24 00:04:37;;;;;;;12.50;4.78;;;;;;;;;;6386078;22;20213;-92
2022/10/24 00:07:42;;;;;;;11.02;4.43;;;;;;;;;;6385778;22;20256;-91
2022/10/24 00:10:48;;;;;;;11.80;4.20;;;;;;;;;;6385139;22;20179;-89
2022/10/24 00:13:56;;;;;;;9.07;4.53;;;;;;;;;;6386913;22;20167;-89
2022/10/24 00:17:02;;;;;;;17.38;4.80;;;;;;;;;;6385737;22;20492;-92
2022/10/24 00:20:07;;;;;;;15.23;4.75;;;;;;;;;;6386699;22;20208;-91
2022/10/24 00:23:12;;;;;;;11.52;4.90;;;;;;;;;;6386016;22;20164;-90
2022/10/24 00:26:18;;;;;;;9.75;4.80;;;;;;;;;;6388941;22;20167;-92
2022/10/24 00:29:25;;;;;;;18.55;5.90;;;;;;;;;;6386662;22;20211;-91
2022/10/24 00:32:30;;;;;;;10.80;5.18;;;;;;;;;;6388695;22;20164;-91
2022/10/24 00:35:35;;;;;;;15.77;4.65;;;;;;;;;;6386984;22;20167;-91
2022/10/24 00:38:41;;;;;;;8.30;4.47;;;;;;;;;;6388408;22;20163;-91
2022/10/24 00:41:46;;;;;;;22.55;4.55;;;;;;;;;;6386823;22;20502;-91
2022/10/24 00:44:54;;;;;;;8.80;4.55;;;;;;;;;;6385902;22;20164;-89
2022/10/24 00:48:01;;;;;;;8.93;3.83;;;;;;;;;;6386105;22;20175;-90
2022/10/24 00:51:09;;;;;;;9.30;4.53;;;;;;;;;;6386390;22;20187;-91
2022/10/24 00:54:17;;;;;;;17.05;4.45;;;;;;;;;;6386946;22;20160;-91
2022/10/24 00:57:25;;;;;;;15.30;4.28;;;;;;;;;;6386217;22;20164;-88
2022/10/24 01:00:34;;;;;;;17.33;5.60;;;;;;;;;;6386875;22;20258;-91
2022/10/24 01:03:39;;;;;;;16.00;4.70;;;;;;;;;;6386992;22;20164;-88
2022/10/24 01:06:47;;;;;;;14.55;4.72;;;;;;;;;;6388259;22;20163;-88
2022/10/24 01:10:03;;;;;;;7.95;4.18;;;;;;;;;;6388230;22;20185;-91
2022/10/24 01:13:13;;;;;;;17.92;5.18;;;;;;;;;;6388520;22;20178;-89
2022/10/24 01:16:22;;;;;;;17.02;5.43;;;;;;;;;;6387520;22;20148;-88
2022/10/24 01:19:39;;;;;;;11.13;4.40;;;;;;;;;;6388556;22;20166;-90
2022/10/24 01:22:48;;;;;;;11.95;4.97;;;;;;;;;;6388083;22;20152;-88
2022/10/24 01:25:59;;;;;;;15.50;4.65;;;;;;;;;;6387096;22;20808;-89
2022/10/24 01:29:09;;;;;;;17.77;5.30;;;;;;;;;;6387638;22;20615;-91
2022/10/24 01:32:18;;;;;;;20.35;4.88;;;;;;;;;;6387597;22;20192;-86
2022/10/24 01:35:25;;;;;;;19.50;5.20;;;;;;;;;;6387345;22;20234;-89
2022/10/24 01:38:34;;;;;;;11.95;5.10;;;;;;;;;;6388015;22;20143;-92
2022/10/24 01:41:41;;;;;;;18.50;4.93;;;;;;;;;;6386967;22;20205;-91
2022/10/24 01:44:49;;;;;;;14.90;4.68;;;;;;;;;;6387827;22;20175;-90
2022/10/24 01:47:57;;;;;;;16.65;5.63;;;;;;;;;;6386789;22;20170;-88
2022/10/24 01:51:03;;;;;;;13.07;5.03;;;;;;;;;;6388461;22;20183;-89
2022/10/24 01:54:09;;;;;;;16.88;5.68;;;;;;;;;;6388611;22;20237;-88
2022/10/24 01:57:16;;;;;;;12.82;4.90;;;;;;;;;;6388156;22;20159;-94
2022/10/24 02:00:22;;;;;;;12.18;4.90;;;;;;;;;;6387993;22;20170;-90
2022/10/24 02:03:30;;;;;;;11.70;4.80;;;;;;;;;;6384179;22;20167;-87
2022/10/24 02:06:38;;;;;;;11.68;4.63;;;;;;;;;;6387314;22;20171;-89
2022/10/24 02:09:44;;;;;;;20.17;5.00;;;;;;;;;;6385020;22;20164;-89
2022/10/24 02:12:53;;;;;;;13.00;4.97;;;;;;;;;;6384359;22;20198;-91
2022/10/24 02:15:59;;;;;;;10.68;5.18;;;;;;;;;;6384282;22;20186;-88
2022/10/24 02:19:06;;;;;;;14.95;6.13;;;;;;;;;;6382196;22;20168;-89
2022/10/24 02:22:17;;;;;;;16.85;5.57;;;;;;;;;;6386027;22;20166;-92
2022/10/24 02:25:25;;;;;;;15.70;5.28;;;;;;;;;;6384386;22;20160;-89
2022/10/24 02:28:33;;;;;;;12.90;5.57;;;;;;;;;;6384397;22;20164;-90
2022/10/24 02:31:41;;;;;;;14.30;5.90;;;;;;;;;;6386242;22;20174;-91
2022/10/24 02:34:48;;;;;;;8.57;5.32;;;;;;;;;;6383993;22;20151;-90
2022/10/24 02:37:55;;;;;;;19.60;6.03;;;;;;;;;;6386507;22;20160;-88
2022/10/24 02:41:01;;;;;;;21.77;5.45;;;;;;;;;;6385692;22;20232;-92
2022/10/24 02:44:08;;;;;;;19.45;6.22;;;;;;;;;;6385725;22;20156;-93
2022/10/24 02:47:14;;;;;;;20.52;5.82;;;;;;;;;;6386466;22;20168;-87
2022/10/24 02:50:23;;;;;;;17.50;6.07;;;;;;;;;;6385027;22;20151;-89
2022/10/24 02:53:29;;;;;;;17.35;5.72;;;;;;;;;;6385883;22;20148;-89
2022/10/24 02:56:35;;;;;;;15.70;5.60;;;;;;;;;;6384633;22;20226;-90
2022/10/24 02:59:40;;;;;;;15.40;5.95;;;;;;;;;;6384728;22;20168;-91
2022/10/24 03:02:45;;;;;;;14.15;5.45;;;;;;;;;;6386002;22;20164;-91
2022/10/24 03:05:51;;;;;;;19.63;5.93;;;;;;;;;;6385370;22;20167;-90
2022/10/24 03:08:56;;;;;;;18.13;6.78;;;;;;;;;;6385923;22;20186;-91
2022/10/24 03:12:01;;;;;;;18.05;6.80;;;;;;;;;;6385671;22;20210;-93
2022/10/24 03:15:07;;;;;;;25.55;6.80;;;;;;;;;;6385573;22;20167;-92
2022/10/24 03:18:12;;;;;;;15.10;5.72;;;;;;;;;;6384353;22;20160;-90
2022/10/24 03:21:19;;;;;;;16.83;6.07;;;;;;;;;;6385772;22;20176;-90
2022/10/24 03:24:24;;;;;;;17.10;6.28;;;;;;;;;;6384832;22;20602;-91
2022/10/24 03:27:29;;;;;;;18.60;6.35;;;;;;;;;;6385948;22;20159;-90
2022/10/24 03:30:34;;;;;;;19.13;6.38;;;;;;;;;;6384908;22;20591;-89
2022/10/24 03:33:40;;;;;;;16.73;6.57;;;;;;;;;;6386021;22;20286;-93
2022/10/24 03:36:47;;;;;;;22.00;6.60;;;;;;;;;;6384241;22;20241;-90
2022/10/24 03:39:52;;;;;;;16.67;6.28;;;;;;;;;;6384624;22;20164;-91
2022/10/24 03:42:57;;;;;;;24.10;6.45;;;;;;;;;;6386879;22;20159;-92
2022/10/24 03:46:02;;;;;;;20.95;7.78;;;;;;;;;;6384875;22;20163;-90
2022/10/24 03:49:08;;;;;;;19.25;7.57;;;;;;;;;;6386797;22;20199;-92
2022/10/24 03:52:15;;;;;;;19.02;6.68;;;;;;;;;;6385504;22;20192;-89
2022/10/24 03:55:20;;;;;;;19.45;7.20;;;;;;;;;;6385430;22;20167;-90
2022/10/24 03:58:25;;;;;;;18.02;7.30;;;;;;;;;;6386030;22;20178;-91
2022/10/24 04:01:36;;;;;;;22.33;6.75;;;;;;;;;;6386224;22;20497;-91
2022/10/24 04:04:41;;;;;;;15.50;6.93;;;;;;;;;;6385867;22;20235;-92
2022/10/24 04:07:50;;;;;;;21.75;6.65;;;;;;;;;;6386383;22;20167;-90
2022/10/24 04:10:55;;;;;;;18.00;7.45;;;;;;;;;;6388847;22;20210;-89
2022/10/24 04:14:00;;;;;;;14.50;6.10;;;;;;;;;;6385606;22;20167;-90
2022/10/24 04:17:05;;;;;;;17.75;6.90;;;;;;;;;;6385283;22;20227;-91
2022/10/24 04:20:11;;;;;;;14.45;7.53;;;;;;;;;;6386078;22;20172;-91
2022/10/24 04:23:17;;;;;;;19.38;7.43;;;;;;;;;;6384357;22;20156;-90
2022/10/24 04:26:23;;;;;;;21.15;7.95;;;;;;;;;;6386603;22;20159;-92
2022/10/24 04:29:28;;;;;;;22.63;7.85;;;;;;;;;;6384941;22;20660;-89
2022/10/24 04:32:33;;;;;;;16.77;7.55;;;;;;;;;;6384315;22;20331;-92
2022/10/24 04:35:38;;;;;;;21.63;8.50;;;;;;;;;;6385512;22;20167;-89
2022/10/24 04:38:45;;;;;;;21.05;8.25;;;;;;;;;;6385714;22;20167;-89
2022/10/24 04:41:51;;;;;;;17.42;7.85;;;;;;;;;;6384487;22;20243;-87
2022/10/24 04:44:57;;;;;;;16.85;7.80;;;;;;;;;;6384853;22;20172;-88
2022/10/24 04:48:02;;;;;;;16.45;7.43;;;;;;;;;;6386136;22;20194;-90
2022/10/24 04:51:07;;;;;;;19.92;8.40;;;;;;;;;;6386318;22;20183;-90
2022/10/24 04:54:13;;;;;;;19.55;8.18;;;;;;;;;;6386430;22;20209;-90
2022/10/24 04:57:18;;;;;;;20.20;7.78;;;;;;;;;;6383772;22;20167;-89
2022/10/24 05:00:23;;;;;;;24.45;9.00;;;;;;;;;;6385947;22;20163;-90
2022/10/24 05:03:29;;;;;;;19.23;8.05;;;;;;;;;;6384881;22;20163;-88
2022/10/24 05:06:39;;;;;;;23.33;9.18;;;;;;;;;;6386012;22;20211;-91
2022/10/24 05:09:46;;;;;;;24.27;8.50;;;;;;;;;;6384424;22;20231;-92
2022/10/24 05:12:51;;;;;;;23.35;8.40;;;;;;;;;;6383536;22;20204;-89
2022/10/24 05:15:56;;;;;;;23.90;8.82;;;;;;;;;;6384618;22;20162;-91
2022/10/24 05:19:14;;;;;;;17.67;9.35;;;;;;;;;;6386483;22;20175;-90
2022/10/24 05:22:19;;;;;;;19.08;9.40;;;;;;;;;;6386004;22;20674;-90
2022/10/24 05:25:25;;;;;;;25.90;11.13;;;;;;;;;;6385460;22;20237;-91
2022/10/24 05:28:30;;;;;;;23.52;10.02;;;;;;;;;;6382519;22;20162;-90
2022/10/24 05:31:36;;;;;;;22.83;9.07;;;;;;;;;;6384897;22;20242;-90
2022/10/24 05:34:42;;;;;;;17.73;8.05;;;;;;;;;;6384820;22;20159;-90
2022/10/24 05:37:47;;;;;;;15.10;7.75;;;;;;;;;;6386586;22;20167;-91
2022/10/24 05:40:56;;;;;;;17.13;8.00;;;;;;;;;;6386424;22;20180;-87
2022/10/24 05:44:01;;;;;;;36.38;9.55;;;;;;;;;;6382729;22;20164;-88
2022/10/24 05:47:07;;;;;;;26.63;9.23;;;;;;;;;;6381001;22;20159;-90
2022/10/24 05:50:12;;;;;;;19.15;9.20;;;;;;;;;;6380848;22;20167;-90
2022/10/24 05:53:17;;;;;;;30.27;10.93;;;;;;;;;;6380198;22;20191;-86
2022/10/24 05:56:24;;;;;;;26.08;9.50;;;;;;;;;;6381075;22;20214;-89
2022/10/24 05:59:29;;;;;;;22.58;9.15;;;;;;;;;;6381887;22;20167;-91
2022/10/24 06:02:34;;;;;;;22.10;8.35;;;;;;;;;;6381721;22;20478;-89
2022/10/24 06:05:41;;;;;;;22.73;9.57;;;;;;;;;;6383857;22;20168;-91
2022/10/24 06:08:47;;;;;;;21.17;8.18;;;;;;;;;;6382072;22;20164;-89
2022/10/24 06:11:53;;;;;;;23.65;8.57;;;;;;;;;;6380449;22;20197;-91
2022/10/24 06:14:59;;;;;;;13.45;7.63;;;;;;;;;;6380897;22;20167;-88
2022/10/24 06:18:04;;;;;;;20.70;8.40;;;;;;;;;;6384283;22;20167;-89
2022/10/24 06:21:10;;;;;;;21.48;8.52;;;;;;;;;;6384744;22;20220;-91
2022/10/24 06:24:15;;;;;;;26.15;9.10;;;;;;;;;;6384208;22;20168;-91
2022/10/24 06:27:22;;;;;;;20.40;9.45;;;;;;;;;;6384602;22;20192;-92
2022/10/24 06:30:28;;;;;;;23.45;9.48;;;;;;;;;;6386740;22;20231;-92
2022/10/24 06:33:33;;;;;;;26.05;9.70;;;;;;;;;;6383806;22;20195;-89
2022/10/24 06:36:39;;;;;;;19.23;9.05;;;;;;;;;;6366132;22;20188;-91
2022/10/24 06:39:45;;;;;;;22.73;8.98;;;;;;;;;;6385446;22;20176;-90
2022/10/24 06:50:28;;;;;;;21.08;8.27;;;;;;;;;;6383645;22;20160;-90
2022/10/24 06:53:34;;;;;;;18.60;8.07;;;;;;;;;;6384804;22;20246;-91
2022/10/24 06:56:40;;;;;;;26.02;8.68;;;;;;;;;;6388040;22;20171;-91
2022/10/24 06:59:49;;;;;;;23.95;8.98;;;;;;;;;;6382842;22;20266;-89
2022/10/24 07:02:55;;;;;;;18.23;9.20;;;;;;;;;;6385005;22;20211;-87
2022/10/24 07:06:00;;;;;;;18.33;8.45;;;;;;;;;;6384757;22;20159;-91
2022/10/24 07:09:06;;;;;;;28.50;9.55;;;;;;;;;;6388446;22;20168;-91
2022/10/24 07:12:12;;;;;;;19.95;8.68;;;;;;;;;;6389935;22;20206;-92
2022/10/24 07:15:19;;;;;;;16.95;8.13;;;;;;;;;;6388069;22;20198;-90
2022/10/24 07:18:25;;;;;;;19.23;8.57;;;;;;;;;;6387421;22;20151;-91
2022/10/24 07:21:31;;;;;;;23.75;9.70;;;;;;;;;;6387006;22;20155;-90
2022/10/24 07:24:38;;;;;;;19.42;9.38;;;;;;;;;;6386510;22;20233;-90
2022/10/24 07:27:44;;;;;;;20.15;10.25;;;;;;;;;;6389312;22;20197;-91
2022/10/24 07:30:50;;;;;;;27.45;10.40;;;;;;;;;;6389244;22;20160;-87
2022/10/24 07:33:56;;;;;;;18.75;8.55;;;;;;;;;;6389900;22;20195;-90
2022/10/24 07:37:02;;;;;;;18.70;8.98;;;;;;;;;;6389912;22;20164;-89
2022/10/24 07:43:27;;;;;;;30.38;12.38;;;;;;;;;;6386039;22;20298;-89
2022/10/24 07:47:14;;;;;;;16.98;9.40;;;;;;;;;;6385198;22;20253;-88
2022/10/24 07:50:21;;;;;;;18.42;10.25;;;;;;;;;;6387427;22;20172;-90
2022/10/24 07:53:26;;;;;;;37.60;9.65;;;;;;;;;;6384866;22;20187;-91
2022/10/24 07:56:34;;;;;;;19.02;9.15;;;;;;;;;;6386963;22;20168;-90
2022/10/24 07:59:39;;;;;;;17.38;7.65;;;;;;;;;;6387303;22;20228;-89
2022/10/24 08:02:45;;;;;;;17.40;8.55;;;;;;;;;;6386702;22;20176;-91
2022/10/24 08:05:56;;;;;;;19.95;9.52;;;;;;;;;;6388204;22;20175;-90
2022/10/24 08:09:02;;;;;;;20.95;9.27;;;;;;;;;;6387306;22;20171;-90
2022/10/24 08:12:08;;;;;;;20.35;9.02;;;;;;;;;;6387688;22;20183;-91
2022/10/24 08:15:13;;;;;;;17.52;9.00;;;;;;;;;;6386101;22;20147;-89
2022/10/24 08:18:18;;;;;;;16.98;8.73;;;;;;;;;;6386673;22;20159;-90
2022/10/24 08:21:27;;;;;;;15.85;7.82;;;;;;;;;;6386871;22;20164;-91
2022/10/24 08:24:32;;;;;;;21.15;7.18;;;;;;;;;;6384081;22;20160;-90
2022/10/24 08:27:39;;;;;;;12.43;7.30;;;;;;;;;;6390509;22;20194;-91
2022/10/24 08:30:46;;;;;;;15.80;7.10;;;;;;;;;;6391125;22;20160;-90
2022/10/24 08:33:52;;;;;;;16.48;8.65;;;;;;;;;;6394038;22;20187;-90
2022/10/24 08:36:59;;;;;;;20.63;9.20;;;;;;;;;;6391887;22;20315;-91
2022/10/24 08:40:07;;;;;;;20.85;10.85;;;;;;;;;;6393249;22;20186;-90
2022/10/24 08:43:14;;;;;;;23.17;9.40;;;;;;;;;;6392853;22;20168;-91
2022/10/24 08:46:28;;;;;;;19.30;8.80;;;;;;;;;;6392193;22;20167;-92
2022/10/24 08:49:39;;;;;;;20.58;9.18;;;;;;;;;;6390452;22;20152;-89
2022/10/24 08:52:54;;;;;;;23.13;9.35;;;;;;;;;;6393194;22;20195;-90
2022/10/24 08:56:00;;;;;;;19.23;9.15;;;;;;;;;;6386509;22;20168;-90
2022/10/24 08:59:10;;;;;;;21.15;9.40;;;;;;;;;;6392149;22;20155;-87
2022/10/24 09:02:18;;;;;;;19.95;9.43;;;;;;;;;;6391399;22;20152;-89
2022/10/24 09:05:36;;;;;;;18.25;9.25;;;;;;;;;;6397949;22;20185;-90
2022/10/24 09:08:51;;;;;;;22.52;10.35;;;;;;;;;;6391435;22;20175;-91
2022/10/24 09:11:57;;;;;;;21.52;11.18;;;;;;;;;;6390954;22;20229;-91
2022/10/24 09:15:13;;;;;;;21.42;11.90;;;;;;;;;;6383299;22;20160;-89
2022/10/24 09:18:23;;;;;;;24.75;11.00;;;;;;;;;;6389453;22;20171;-92
2022/10/24 09:21:29;;;;;;;21.48;10.27;;;;;;;;;;6389788;22;20205;-93
2022/10/24 09:24:42;;;;;;;20.17;10.18;;;;;;;;;;6390090;22;20212;-90
2022/10/24 09:27:48;;;;;;;25.38;12.38;;;;;;;;;;6389579;22;20164;-90
2022/10/24 09:30:55;;;;;;;27.40;12.77;;;;;;;;;;6390772;22;20155;-90
2022/10/24 09:37:35;;;;;;;23.08;10.98;;;;;;;;;;6390954;22;20152;-90
2022/10/24 09:40:42;;;;;;;32.45;12.18;;;;;;;;;;6393261;22;20214;-91
2022/10/24 09:44:19;;;;;;;28.27;13.98;;;;;;;;;;6389132;22;20189;-88
2022/10/24 09:50:46;;;;;;;24.45;10.90;;;;;;;;;;6384285;22;20202;-89
2022/10/24 09:54:03;;;;;;;23.83;10.68;;;;;;;;;;6383347;22;20255;-91
2022/10/24 09:57:13;;;;;;;18.23;9.88;;;;;;;;;;6381149;22;20288;-91
2022/10/24 10:00:23;;;;;;;20.00;8.90;;;;;;;;;;6383005;22;20168;-90
2022/10/24 10:03:29;;;;;;;34.45;17.02;;;;;;;;;;6384541;22;20173;-89
2022/10/24 10:06:34;;;;;;;20.27;11.48;;;;;;;;;;6386018;22;20274;-89
2022/10/24 10:09:47;;;;;;;27.40;11.63;;;;;;;;;;6382729;22;20230;-88
2022/10/24 10:12:59;;;;;;;20.38;10.52;;;;;;;;;;6384650;22;20195;-89
2022/10/24 10:16:04;;;;;;;24.45;11.48;;;;;;;;;;6383403;22;20234;-90
2022/10/24 10:19:19;;;;;;;26.00;11.27;;;;;;;;;;6384727;22;20168;-88
2022/10/24 10:22:26;;;;;;;24.83;11.98;;;;;;;;;;6385804;22;20168;-90
2022/10/24 10:25:32;;;;;;;24.13;11.45;;;;;;;;;;6382024;22;20160;-89
2022/10/24 10:28:42;;;;;;;24.05;11.15;;;;;;;;;;6382857;22;20208;-90
2022/10/24 10:31:58;;;;;;;20.08;10.70;;;;;;;;;;6382453;22;20261;-90
2022/10/24 10:35:07;;;;;;;17.77;9.18;;;;;;;;;;6383488;22;20191;-91
2022/10/24 10:38:19;;;;;;;21.42;9.43;;;;;;;;;;6383094;22;20163;-89
2022/10/24 10:41:42;;;;;;;20.70;9.18;;;;;;;;;;6383592;22;20222;-91
2022/10/24 10:44:55;;;;;;;22.90;11.30;;;;;;;;;;6385937;22;20164;-91
2022/10/24 10:48:06;;;;;;;47.65;25.13;;;;;;;;;;6386262;22;20194;-90
2022/10/24 10:51:17;;;;;;;25.90;13.48;;;;;;;;;;6385062;22;20171;-91
2022/10/24 10:54:41;;;;;;;19.27;11.35;;;;;;;;;;6384788;22;20192;-89
2022/10/24 10:57:51;;;;;;;22.33;10.65;;;;;;;;;;6386490;22;20202;-93
2022/10/24 11:01:00;;;;;;;26.95;11.88;;;;;;;;;;6387335;22;20178;-89
2022/10/24 11:04:10;;;;;;;26.60;12.82;;;;;;;;;;6384616;22;20241;-92
2022/10/24 11:07:18;;;;;;;30.48;14.02;;;;;;;;;;6386669;22;20231;-90
2022/10/24 11:10:25;;;;;;;28.45;13.43;;;;;;;;;;6386655;22;20171;-89
2022/10/24 11:13:33;;;;;;;26.10;12.32;;;;;;;;;;6385689;22;20247;-91
2022/10/24 11:16:39;;;;;;;30.50;12.73;;;;;;;;;;6385886;22;20165;-91
2022/10/24 11:19:50;;;;;;;26.92;12.13;;;;;;;;;;6387778;22;20167;-90
2022/10/24 11:22:57;;;;;;;23.35;9.85;;;;;;;;;;6385719;22;20164;-90
2022/10/24 11:26:04;;;;;;;23.88;9.40;;;;;;;;;;6386034;22;20175;-92
2022/10/24 11:29:12;;;;;;;28.17;13.35;;;;;;;;;;6387219;22;20506;-92
2022/10/24 11:32:30;;;;;;;156.95;51.35;;;;;;;;;;6385330;22;20236;-90
2022/10/24 11:35:39;;;;;;;145.52;50.05;;;;;;;;;;6383060;22;20168;-90
2022/10/24 11:38:47;;;;;;;97.80;37.65;;;;;;;;;;6384918;22;20168;-90
2022/10/24 11:41:54;;;;;;;35.67;13.68;;;;;;;;;;6384022;22;20168;-91
2022/10/24 11:45:02;;;;;;;21.55;11.27;;;;;;;;;;6385565;22;20182;-90
2022/10/24 11:48:13;;;;;;;20.85;10.52;;;;;;;;;;6384805;22;20167;-92
2022/10/24 11:51:20;;;;;;;31.10;11.57;;;;;;;;;;6385348;22;20613;-90
2022/10/24 11:54:27;;;;;;;19.08;8.45;;;;;;;;;;6384735;22;20284;-89
2022/10/24 11:57:33;;;;;;;18.67;8.68;;;;;;;;;;6383907;22;20167;-89
2022/10/24 12:00:43;;;;;;;22.30;8.77;;;;;;;;;;6388536;22;20147;-91
2022/10/24 12:03:58;;;;;;;19.08;8.82;;;;;;;;;;6384648;22;20168;-90
2022/10/24 12:07:29;;;;;;;19.90;8.85;;;;;;;;;;6383813;22;20163;-92
2022/10/24 12:10:56;;;;;;;23.65;9.93;;;;;;;;;;6381985;22;20213;-88
2022/10/24 12:14:31;;;;;;;19.25;10.32;;;;;;;;;;6384026;22;20192;-90
2022/10/24 12:17:52;;;;;;;24.13;12.10;;;;;;;;;;6386785;22;20164;-91
2022/10/24 12:21:02;;;;;;;20.17;9.63;;;;;;;;;;6383505;22;20170;-91
2022/10/24 12:24:07;;;;;;;22.33;10.48;;;;;;;;;;6383893;22;20151;-90
2022/10/24 12:27:22;;;;;;;21.63;9.90;;;;;;;;;;6384924;22;20491;-89
2022/10/24 12:30:29;;;;;;;24.40;10.65;;;;;;;;;;6383338;22;20194;-90
2022/10/24 12:33:35;;;;;;;19.95;11.18;;;;;;;;;;6384430;22;20618;-88
2022/10/24 12:37:01;;;;;;;29.98;10.95;;;;;;;;;;6384905;22;20599;-89
2022/10/24 12:40:28;;;;;;;23.50;11.20;;;;;;;;;;6389507;22;20195;-91
2022/10/24 12:43:43;;;;;;;24.67;10.43;;;;;;;;;;6386487;22;20172;-89
2022/10/24 12:46:55;;;;;;;23.83;10.02;;;;;;;;;;6389607;22;20160;-89
2022/10/24 12:50:20;;;;;;;22.73;10.02;;;;;;;;;;6386555;22;20263;-88
2022/10/24 12:53:33;;;;;;;24.73;9.43;;;;;;;;;;6386346;22;20410;-93
2022/10/24 12:56:58;;;;;;;19.92;8.45;;;;;;;;;;6393451;22;20164;-92
2022/10/24 13:00:23;;;;;;;14.80;8.27;;;;;;;;;;6391502;22;20167;-90
2022/10/24 13:03:39;;;;;;;18.40;8.85;;;;;;;;;;6391554;22;20209;-91
2022/10/24 13:07:03;;;;;;;19.50;9.20;;;;;;;;;;6392905;22;20602;-86
2022/10/24 13:10:19;;;;;;;18.65;8.75;;;;;;;;;;6390229;22;20701;-90
2022/10/24 13:13:39;;;;;;;23.70;10.27;;;;;;;;;;6388675;22;20171;-92
2022/10/24 13:16:52;;;;;;;24.98;9.20;;;;;;;;;;6391449;22;20225;-91
2022/10/24 13:20:12;;;;;;;17.55;7.75;;;;;;;;;;6393181;22;20152;-92
2022/10/24 13:23:18;;;;;;;19.25;8.43;;;;;;;;;;6391029;22;20186;-91
2022/10/24 13:26:37;;;;;;;23.42;8.23;;;;;;;;;;6392892;22;20209;-88
2022/10/24 13:30:02;;;;;;;21.50;9.02;;;;;;;;;;6390317;22;20206;-90
2022/10/24 13:33:28;;;;;;;20.77;8.38;;;;;;;;;;6389774;22;20214;-92
2022/10/24 13:36:37;;;;;;;15.38;7.65;;;;;;;;;;6391395;22;20218;-91
2022/10/24 13:39:47;;;;;;;15.95;7.15;;;;;;;;;;6389659;22;20167;-92
2022/10/24 13:42:54;;;;;;;17.25;7.43;;;;;;;;;;6389194;22;20168;-89
2022/10/24 13:46:04;;;;;;;17.60;7.82;;;;;;;;;;6390816;22;20193;-90
2022/10/24 13:49:16;;;;;;;23.95;8.93;;;;;;;;;;6389782;22;20168;-90
2022/10/24 13:52:27;;;;;;;15.07;8.10;;;;;;;;;;6390882;22;20160;-90
2022/10/24 13:55:34;;;;;;;17.92;7.97;;;;;;;;;;6391756;22;20196;-89
2022/10/24 13:58:44;;;;;;;20.85;7.30;;;;;;;;;;6389404;22;20159;-90
2022/10/24 14:01:50;;;;;;;14.60;7.30;;;;;;;;;;6388524;22;20206;-90
2022/10/24 14:04:57;;;;;;;19.60;8.40;;;;;;;;;;6389750;22;20168;-89
2022/10/24 14:08:06;;;;;;;20.58;8.27;;;;;;;;;;6387530;22;20213;-90
2022/10/24 14:11:15;;;;;;;16.90;6.80;;;;;;;;;;6391955;22;20159;-89
2022/10/24 14:14:29;;;;;;;16.17;6.70;;;;;;;;;;6391944;22;20566;-89
2022/10/24 14:17:43;;;;;;;15.73;6.05;;;;;;;;;;6393113;22;20171;-90
2022/10/24 14:20:53;;;;;;;11.82;4.95;;;;;;;;;;6392115;22;20162;-90
2022/10/24 14:24:11;;;;;;;17.95;7.20;;;;;;;;;;6392926;22;20167;-89
